sensor_id;sensor_type;location;lat;lon;timestamp;temperature;humidity
8643;DHT22;4359;49.358;11.256;2023-04-25T00:01:04;6.20;99.90
8643;DHT22;4359;49.358;11.256;2023-04-25T00:03:31;6.20;99.90
8643;DHT22;4359;49.358;11.256;2023-04-25T00:05:58;6.20;99.90
8643;DHT22;4359;49.358;11.256;2023-04-25T00:08:28;6.20;99.90
8643;DHT22;4359;49.358;11.256;2023-04-25T00:10:53;6.20;99.90
8643;DHT22;4359;49.358;11.256;2023-04-25T00:13:19;6.20;99.90
8643;DHT22;4359;49.358;11.256;2023-04-25T00:15:45;6.20;99.90
8643;DHT22;4359;49.358;11.256;2023-04-25T00:18:11;6.20;99.90
8643;DHT22;4359;49.358;11.256;2023-04-25T00:20:37;6.30;99.90
8643;DHT22;4359;49.358;11.256;2023-04-25T00:23:02;6.30;99.90
8643;DHT22;4359;49.358;11.256;2023-04-25T00:25:28;6.30;99.90
8643;DHT22;4359;49.358;11.256;2023-04-25T00:27:54;6.30;99.90
8643;DHT22;4359;49.358;11.256;2023-04-25T00:30:20;6.30;99.90
8643;DHT22;4359;49.358;11.256;2023-04-25T00:32:45;6.40;99.90
8643;DHT22;4359;49.358;11.256;2023-04-25T00:35:11;6.40;99.90
8643;DHT22;4359;49.358;11.256;2023-04-25T00:37:37;6.40;99.90
8643;DHT22;4359;49.358;11.256;2023-04-25T00:40:04;6.40;99.90
8643;DHT22;4359;49.358;11.256;2023-04-25T00:42:31;6.40;99.90
8643;DHT22;4359;49.358;11.256;2023-04-25T00:44:58;6.40;99.90
8643;DHT22;4359;49.358;11.256;2023-04-25T00:47:25;6.30;99.90
8643;DHT22;4359;49.358;11.256;2023-04-25T00:49:50;6.30;99.90
8643;DHT22;4359;49.358;11.256;2023-04-25T00:52:16;6.30;99.90
8643;DHT22;4359;49.358;11.256;2023-04-25T00:54:42;6.20;99.90
8643;DHT22;4359;49.358;11.256;2023-04-25T00:57:08;6.20;99.90
8643;DHT22;4359;49.358;11.256;2023-04-25T00:59:34;6.20;99.90
8643;DHT22;4359;49.358;11.256;2023-04-25T01:02:00;6.20;99.90
8643;DHT22;4359;49.358;11.256;2023-04-25T01:04:27;6.30;99.90
8643;DHT22;4359;49.358;11.256;2023-04-25T01:06:54;6.30;99.90
8643;DHT22;4359;49.358;11.256;2023-04-25T01:09:21;6.30;99.90
8643;DHT22;4359;49.358;11.256;2023-04-25T01:11:47;6.40;99.90
8643;DHT22;4359;49.358;11.256;2023-04-25T01:14:13;6.40;99.90
8643;DHT22;4359;49.358;11.256;2023-04-25T01:16:39;6.40;99.90
8643;DHT22;4359;49.358;11.256;2023-04-25T01:19:09;6.50;99.90
8643;DHT22;4359;49.358;11.256;2023-04-25T01:21:36;6.50;99.90
8643;DHT22;4359;49.358;11.256;2023-04-25T01:24:02;6.50;99.90
8643;DHT22;4359;49.358;11.256;2023-04-25T01:26:28;6.50;99.90
8643;DHT22;4359;49.358;11.256;2023-04-25T01:28:54;6.40;99.90
8643;DHT22;4359;49.358;11.256;2023-04-25T01:31:20;6.30;99.90
8643;DHT22;4359;49.358;11.256;2023-04-25T01:33:47;6.30;99.90
8643;DHT22;4359;49.358;11.256;2023-04-25T01:36:13;6.20;99.90
8643;DHT22;4359;49.358;11.256;2023-04-25T01:38:39;6.20;99.90
8643;DHT22;4359;49.358;11.256;2023-04-25T01:41:05;6.20;99.90
8643;DHT22;4359;49.358;11.256;2023-04-25T01:43:31;6.30;99.90
8643;DHT22;4359;49.358;11.256;2023-04-25T01:45:57;6.20;99.90
8643;DHT22;4359;49.358;11.256;2023-04-25T01:48:23;6.20;99.90
8643;DHT22;4359;49.358;11.256;2023-04-25T01:50:48;6.20;99.90
8643;DHT22;4359;49.358;11.256;2023-04-25T01:53:14;6.20;99.90
8643;DHT22;4359;49.358;11.256;2023-04-25T01:55:40;6.10;99.90
8643;DHT22;4359;49.358;11.256;2023-04-25T01:58:06;6.10;99.90
8643;DHT22;4359;49.358;11.256;2023-04-25T02:00:35;6.10;99.90
8643;DHT22;4359;49.358;11.256;2023-04-25T02:03:03;6.00;99.90
8643;DHT22;4359;49.358;11.256;2023-04-25T02:05:33;6.10;99.90
8643;DHT22;4359;49.358;11.256;2023-04-25T02:07:59;6.10;99.90
8643;DHT22;4359;49.358;11.256;2023-04-25T02:10:24;6.10;99.90
8643;DHT22;4359;49.358;11.256;2023-04-25T02:12:50;6.20;99.90
8643;DHT22;4359;49.358;11.256;2023-04-25T02:15:16;6.30;99.90
8643;DHT22;4359;49.358;11.256;2023-04-25T02:17:41;6.30;99.90
8643;DHT22;4359;49.358;11.256;2023-04-25T02:20:07;6.30;99.90
8643;DHT22;4359;49.358;11.256;2023-04-25T02:22:33;6.30;99.90
8643;DHT22;4359;49.358;11.256;2023-04-25T02:25:00;6.30;99.90
8643;DHT22;4359;49.358;11.256;2023-04-25T02:27:26;6.30;99.90
8643;DHT22;4359;49.358;11.256;2023-04-25T02:29:52;6.30;99.90
8643;DHT22;4359;49.358;11.256;2023-04-25T02:32:17;6.30;99.90
8643;DHT22;4359;49.358;11.256;2023-04-25T02:34:43;6.30;99.90
8643;DHT22;4359;49.358;11.256;2023-04-25T02:37:09;6.30;99.90
8643;DHT22;4359;49.358;11.256;2023-04-25T02:39:35;6.30;99.90
8643;DHT22;4359;49.358;11.256;2023-04-25T02:42:01;6.30;99.90
8643;DHT22;4359;49.358;11.256;2023-04-25T02:44:26;6.20;99.90
8643;DHT22;4359;49.358;11.256;2023-04-25T02:46:52;6.20;99.90
8643;DHT22;4359;49.358;11.256;2023-04-25T02:49:18;6.30;99.90
8643;DHT22;4359;49.358;11.256;2023-04-25T02:51:43;6.30;99.90
8643;DHT22;4359;49.358;11.256;2023-04-25T02:54:09;6.30;99.90
8643;DHT22;4359;49.358;11.256;2023-04-25T02:56:35;6.20;99.90
8643;DHT22;4359;49.358;11.256;2023-04-25T02:59:00;6.20;99.90
8643;DHT22;4359;49.358;11.256;2023-04-25T03:01:26;6.20;99.90
8643;DHT22;4359;49.358;11.256;2023-04-25T03:03:52;6.20;99.90
8643;DHT22;4359;49.358;11.256;2023-04-25T03:06:17;6.20;99.90
8643;DHT22;4359;49.358;11.256;2023-04-25T03:08:43;6.20;99.90
8643;DHT22;4359;49.358;11.256;2023-04-25T03:11:08;6.10;99.90
8643;DHT22;4359;49.358;11.256;2023-04-25T03:13:34;6.10;99.90
8643;DHT22;4359;49.358;11.256;2023-04-25T03:16:00;6.00;99.90
8643;DHT22;4359;49.358;11.256;2023-04-25T03:18:26;5.90;99.90
8643;DHT22;4359;49.358;11.256;2023-04-25T03:20:51;5.90;99.90
8643;DHT22;4359;49.358;11.256;2023-04-25T03:23:17;5.80;99.90
8643;DHT22;4359;49.358;11.256;2023-04-25T03:25:43;5.80;99.90
8643;DHT22;4359;49.358;11.256;2023-04-25T03:28:08;5.70;99.90
8643;DHT22;4359;49.358;11.256;2023-04-25T03:30:34;5.70;99.90
8643;DHT22;4359;49.358;11.256;2023-04-25T03:32:59;5.60;99.90
8643;DHT22;4359;49.358;11.256;2023-04-25T03:35:25;5.60;99.90
8643;DHT22;4359;49.358;11.256;2023-04-25T03:37:51;5.60;99.90
8643;DHT22;4359;49.358;11.256;2023-04-25T03:40:17;5.60;99.90
8643;DHT22;4359;49.358;11.256;2023-04-25T03:42:42;5.70;99.90
8643;DHT22;4359;49.358;11.256;2023-04-25T03:45:08;5.70;99.90
8643;DHT22;4359;49.358;11.256;2023-04-25T03:47:34;5.70;99.90
8643;DHT22;4359;49.358;11.256;2023-04-25T03:49:59;5.80;99.90
8643;DHT22;4359;49.358;11.256;2023-04-25T03:52:26;5.80;99.90
8643;DHT22;4359;49.358;11.256;2023-04-25T03:54:52;5.70;99.90
8643;DHT22;4359;49.358;11.256;2023-04-25T03:57:18;5.80;99.90
8643;DHT22;4359;49.358;11.256;2023-04-25T03:59:43;5.80;99.90
8643;DHT22;4359;49.358;11.256;2023-04-25T04:02:09;5.80;99.90
8643;DHT22;4359;49.358;11.256;2023-04-25T04:04:35;5.90;99.90
8643;DHT22;4359;49.358;11.256;2023-04-25T04:07:01;5.80;99.90
8643;DHT22;4359;49.358;11.256;2023-04-25T04:09:27;5.80;99.90
8643;DHT22;4359;49.358;11.256;2023-04-25T04:11:53;5.80;99.90
8643;DHT22;4359;49.358;11.256;2023-04-25T04:14:18;5.80;99.90
8643;DHT22;4359;49.358;11.256;2023-04-25T04:16:44;5.70;99.90
8643;DHT22;4359;49.358;11.256;2023-04-25T04:19:10;5.70;99.90
8643;DHT22;4359;49.358;11.256;2023-04-25T04:21:35;5.70;99.90
8643;DHT22;4359;49.358;11.256;2023-04-25T04:24:01;5.70;99.90
8643;DHT22;4359;49.358;11.256;2023-04-25T04:26:27;5.70;99.90
8643;DHT22;4359;49.358;11.256;2023-04-25T04:28:53;5.70;99.90
8643;DHT22;4359;49.358;11.256;2023-04-25T04:31:22;5.90;99.90
8643;DHT22;4359;49.358;11.256;2023-04-25T04:33:49;5.90;99.90
8643;DHT22;4359;49.358;11.256;2023-04-25T04:36:15;6.00;99.90
8643;DHT22;4359;49.358;11.256;2023-04-25T04:38:41;6.10;99.90
8643;DHT22;4359;49.358;11.256;2023-04-25T04:41:07;6.20;99.90
8643;DHT22;4359;49.358;11.256;2023-04-25T04:43:33;6.30;99.90
8643;DHT22;4359;49.358;11.256;2023-04-25T04:46:02;6.40;99.90
8643;DHT22;4359;49.358;11.256;2023-04-25T04:48:30;6.50;99.90
8643;DHT22;4359;49.358;11.256;2023-04-25T04:50:58;6.50;99.90
8643;DHT22;4359;49.358;11.256;2023-04-25T04:53:24;6.50;99.90
8643;DHT22;4359;49.358;11.256;2023-04-25T04:55:49;6.50;99.90
8643;DHT22;4359;49.358;11.256;2023-04-25T04:58:15;6.60;99.90
8643;DHT22;4359;49.358;11.256;2023-04-25T05:00:41;6.70;99.90
8643;DHT22;4359;49.358;11.256;2023-04-25T05:03:06;6.80;99.90
8643;DHT22;4359;49.358;11.256;2023-04-25T05:05:32;6.90;99.90
8643;DHT22;4359;49.358;11.256;2023-04-25T05:07:57;6.90;99.90
8643;DHT22;4359;49.358;11.256;2023-04-25T05:10:23;6.90;99.90
8643;DHT22;4359;49.358;11.256;2023-04-25T05:12:49;6.90;99.90
8643;DHT22;4359;49.358;11.256;2023-04-25T05:15:14;6.90;99.90
8643;DHT22;4359;49.358;11.256;2023-04-25T05:17:40;7.00;99.90
8643;DHT22;4359;49.358;11.256;2023-04-25T05:20:07;7.00;99.90
8643;DHT22;4359;49.358;11.256;2023-04-25T05:22:34;7.00;99.90
8643;DHT22;4359;49.358;11.256;2023-04-25T05:25:01;6.90;99.90
8643;DHT22;4359;49.358;11.256;2023-04-25T05:27:26;7.00;99.90
8643;DHT22;4359;49.358;11.256;2023-04-25T05:29:52;7.00;99.90
8643;DHT22;4359;49.358;11.256;2023-04-25T05:32:18;7.10;99.90
8643;DHT22;4359;49.358;11.256;2023-04-25T05:34:43;7.20;99.90
8643;DHT22;4359;49.358;11.256;2023-04-25T05:37:09;7.30;99.90
8643;DHT22;4359;49.358;11.256;2023-04-25T05:39:35;7.50;99.90
8643;DHT22;4359;49.358;11.256;2023-04-25T05:42:01;7.70;99.90
8643;DHT22;4359;49.358;11.256;2023-04-25T05:44:26;7.80;99.90
8643;DHT22;4359;49.358;11.256;2023-04-25T05:46:52;7.90;99.90
8643;DHT22;4359;49.358;11.256;2023-04-25T05:49:18;7.90;99.90
8643;DHT22;4359;49.358;11.256;2023-04-25T05:51:43;7.80;99.90
8643;DHT22;4359;49.358;11.256;2023-04-25T05:54:09;7.80;99.90
8643;DHT22;4359;49.358;11.256;2023-04-25T05:56:35;7.60;99.90
8643;DHT22;4359;49.358;11.256;2023-04-25T05:59:01;7.60;99.90
8643;DHT22;4359;49.358;11.256;2023-04-25T06:01:26;7.70;99.90
8643;DHT22;4359;49.358;11.256;2023-04-25T06:03:52;7.80;99.90
8643;DHT22;4359;49.358;11.256;2023-04-25T06:06:18;7.80;99.90
8643;DHT22;4359;49.358;11.256;2023-04-25T06:08:44;7.90;99.90
8643;DHT22;4359;49.358;11.256;2023-04-25T06:11:10;7.90;99.90
8643;DHT22;4359;49.358;11.256;2023-04-25T06:13:35;7.90;99.90
8643;DHT22;4359;49.358;11.256;2023-04-25T06:16:01;8.10;99.90
8643;DHT22;4359;49.358;11.256;2023-04-25T06:18:27;8.20;99.90
8643;DHT22;4359;49.358;11.256;2023-04-25T06:20:52;8.20;99.90
8643;DHT22;4359;49.358;11.256;2023-04-25T06:23:18;8.20;99.90
8643;DHT22;4359;49.358;11.256;2023-04-25T06:25:44;8.20;99.90
8643;DHT22;4359;49.358;11.256;2023-04-25T06:28:11;8.10;99.90
8643;DHT22;4359;49.358;11.256;2023-04-25T06:30:36;8.10;99.90
8643;DHT22;4359;49.358;11.256;2023-04-25T06:33:02;8.00;99.90
8643;DHT22;4359;49.358;11.256;2023-04-25T06:35:27;8.10;99.90
8643;DHT22;4359;49.358;11.256;2023-04-25T06:37:53;7.90;99.90
8643;DHT22;4359;49.358;11.256;2023-04-25T06:40:19;7.90;99.90
8643;DHT22;4359;49.358;11.256;2023-04-25T06:42:44;7.70;99.90
8643;DHT22;4359;49.358;11.256;2023-04-25T06:45:10;7.70;99.90
8643;DHT22;4359;49.358;11.256;2023-04-25T06:47:36;7.60;99.90
8643;DHT22;4359;49.358;11.256;2023-04-25T06:50:02;7.60;99.90
8643;DHT22;4359;49.358;11.256;2023-04-25T06:52:28;7.60;99.90
8643;DHT22;4359;49.358;11.256;2023-04-25T06:54:53;7.70;99.90
8643;DHT22;4359;49.358;11.256;2023-04-25T06:57:21;7.70;99.90
8643;DHT22;4359;49.358;11.256;2023-04-25T06:59:47;7.80;99.90
8643;DHT22;4359;49.358;11.256;2023-04-25T07:02:12;7.80;99.90
8643;DHT22;4359;49.358;11.256;2023-04-25T07:04:38;7.70;99.90
8643;DHT22;4359;49.358;11.256;2023-04-25T07:07:04;7.60;99.90
8643;DHT22;4359;49.358;11.256;2023-04-25T07:09:30;7.60;99.90
8643;DHT22;4359;49.358;11.256;2023-04-25T07:11:59;7.40;99.90
8643;DHT22;4359;49.358;11.256;2023-04-25T07:14:27;7.30;99.90
8643;DHT22;4359;49.358;11.256;2023-04-25T07:16:52;7.20;99.90
8643;DHT22;4359;49.358;11.256;2023-04-25T07:19:18;7.20;99.90
8643;DHT22;4359;49.358;11.256;2023-04-25T07:21:44;7.10;99.90
8643;DHT22;4359;49.358;11.256;2023-04-25T07:24:09;7.00;99.90
8643;DHT22;4359;49.358;11.256;2023-04-25T07:26:35;7.00;99.90
8643;DHT22;4359;49.358;11.256;2023-04-25T07:29:01;6.90;99.90
8643;DHT22;4359;49.358;11.256;2023-04-25T07:31:26;6.90;99.90
8643;DHT22;4359;49.358;11.256;2023-04-25T07:33:53;6.90;99.90
8643;DHT22;4359;49.358;11.256;2023-04-25T07:36:18;7.00;99.90
8643;DHT22;4359;49.358;11.256;2023-04-25T07:38:44;7.10;99.90
8643;DHT22;4359;49.358;11.256;2023-04-25T07:41:09;7.30;99.90
8643;DHT22;4359;49.358;11.256;2023-04-25T07:43:35;7.30;99.90
8643;DHT22;4359;49.358;11.256;2023-04-25T07:46:00;7.40;99.90
8643;DHT22;4359;49.358;11.256;2023-04-25T07:48:26;7.50;99.90
8643;DHT22;4359;49.358;11.256;2023-04-25T07:50:52;7.80;99.90
8643;DHT22;4359;49.358;11.256;2023-04-25T07:53:17;7.90;99.90
8643;DHT22;4359;49.358;11.256;2023-04-25T07:55:43;8.00;99.90
8643;DHT22;4359;49.358;11.256;2023-04-25T07:58:11;8.20;99.90
8643;DHT22;4359;49.358;11.256;2023-04-25T08:00:36;8.10;99.90
8643;DHT22;4359;49.358;11.256;2023-04-25T08:03:03;8.10;99.90
8643;DHT22;4359;49.358;11.256;2023-04-25T08:05:29;7.90;99.90
8643;DHT22;4359;49.358;11.256;2023-04-25T08:07:54;7.60;99.90
8643;DHT22;4359;49.358;11.256;2023-04-25T08:10:22;7.20;99.90
8643;DHT22;4359;49.358;11.256;2023-04-25T08:12:48;7.00;99.90
8643;DHT22;4359;49.358;11.256;2023-04-25T08:15:14;6.80;99.90
8643;DHT22;4359;49.358;11.256;2023-04-25T08:17:40;6.70;99.90
8643;DHT22;4359;49.358;11.256;2023-04-25T08:20:06;6.60;99.90
8643;DHT22;4359;49.358;11.256;2023-04-25T08:22:32;6.70;99.90
8643;DHT22;4359;49.358;11.256;2023-04-25T08:24:57;6.80;99.90
8643;DHT22;4359;49.358;11.256;2023-04-25T08:27:23;6.70;99.90
8643;DHT22;4359;49.358;11.256;2023-04-25T08:29:49;6.70;99.90
8643;DHT22;4359;49.358;11.256;2023-04-25T08:32:15;6.70;99.90
8643;DHT22;4359;49.358;11.256;2023-04-25T08:34:41;6.70;99.90
8643;DHT22;4359;49.358;11.256;2023-04-25T08:37:08;6.60;99.90
8643;DHT22;4359;49.358;11.256;2023-04-25T08:39:35;6.60;99.90
8643;DHT22;4359;49.358;11.256;2023-04-25T08:42:02;6.70;99.90
8643;DHT22;4359;49.358;11.256;2023-04-25T08:44:33;6.90;99.90
8643;DHT22;4359;49.358;11.256;2023-04-25T08:46:59;6.90;99.90
8643;DHT22;4359;49.358;11.256;2023-04-25T08:49:25;6.70;99.90
8643;DHT22;4359;49.358;11.256;2023-04-25T08:51:51;6.70;99.90
8643;DHT22;4359;49.358;11.256;2023-04-25T08:54:19;6.90;99.90
8643;DHT22;4359;49.358;11.256;2023-04-25T08:56:47;7.20;99.90
8643;DHT22;4359;49.358;11.256;2023-04-25T08:59:13;7.40;99.90
8643;DHT22;4359;49.358;11.256;2023-04-25T09:01:39;7.70;99.90
8643;DHT22;4359;49.358;11.256;2023-04-25T09:04:05;7.90;99.90
8643;DHT22;4359;49.358;11.256;2023-04-25T09:06:31;8.10;99.90
8643;DHT22;4359;49.358;11.256;2023-04-25T09:09:05;8.40;99.90
8643;DHT22;4359;49.358;11.256;2023-04-25T09:11:31;8.90;99.90
8643;DHT22;4359;49.358;11.256;2023-04-25T09:16:57;9.40;99.90
8643;DHT22;4359;49.358;11.256;2023-04-25T09:19:27;9.40;99.90
8643;DHT22;4359;49.358;11.256;2023-04-25T09:21:57;9.40;99.90
8643;DHT22;4359;49.358;11.256;2023-04-25T09:27:12;9.80;99.90
8643;DHT22;4359;49.358;11.256;2023-04-25T09:29:39;10.10;99.90
8643;DHT22;4359;49.358;11.256;2023-04-25T09:32:18;10.20;99.90
8643;DHT22;4359;49.358;11.256;2023-04-25T09:34:47;10.40;99.90
8643;DHT22;4359;49.358;11.256;2023-04-25T09:37:30;10.70;99.90
8643;DHT22;4359;49.358;11.256;2023-04-25T09:39:57;10.80;99.90
8643;DHT22;4359;49.358;11.256;2023-04-25T09:42:30;10.70;99.90
8643;DHT22;4359;49.358;11.256;2023-04-25T09:44:58;10.70;99.90
8643;DHT22;4359;49.358;11.256;2023-04-25T09:47:25;10.80;99.90
8643;DHT22;4359;49.358;11.256;2023-04-25T09:49:53;10.80;99.90
8643;DHT22;4359;49.358;11.256;2023-04-25T09:52:24;10.40;99.90
8643;DHT22;4359;49.358;11.256;2023-04-25T09:54:52;10.40;99.90
8643;DHT22;4359;49.358;11.256;2023-04-25T09:57:20;11.10;99.90
8643;DHT22;4359;49.358;11.256;2023-04-25T09:59:49;10.70;99.90
8643;DHT22;4359;49.358;11.256;2023-04-25T10:02:19;10.40;99.90
8643;DHT22;4359;49.358;11.256;2023-04-25T10:04:52;11.00;99.90
8643;DHT22;4359;49.358;11.256;2023-04-25T10:07:22;11.30;99.90
8643;DHT22;4359;49.358;11.256;2023-04-25T10:09:58;12.00;99.90
8643;DHT22;4359;49.358;11.256;2023-04-25T10:12:26;12.10;99.90
8643;DHT22;4359;49.358;11.256;2023-04-25T10:14:52;12.20;99.90
8643;DHT22;4359;49.358;11.256;2023-04-25T10:17:20;12.40;99.90
8643;DHT22;4359;49.358;11.256;2023-04-25T10:19:49;12.00;99.90
8643;DHT22;4359;49.358;11.256;2023-04-25T10:22:38;12.60;99.90
8643;DHT22;4359;49.358;11.256;2023-04-25T10:25:06;12.90;99.90
8643;DHT22;4359;49.358;11.256;2023-04-25T10:27:34;13.00;99.90
8643;DHT22;4359;49.358;11.256;2023-04-25T10:30:07;12.30;99.90
8643;DHT22;4359;49.358;11.256;2023-04-25T10:32:38;11.50;99.90
8643;DHT22;4359;49.358;11.256;2023-04-25T10:35:15;11.20;99.90
8643;DHT22;4359;49.358;11.256;2023-04-25T10:38:04;10.90;99.90
8643;DHT22;4359;49.358;11.256;2023-04-25T10:40:34;10.90;99.90
8643;DHT22;4359;49.358;11.256;2023-04-25T10:45:56;11.40;99.90
8643;DHT22;4359;49.358;11.256;2023-04-25T10:48:26;11.60;99.90
8643;DHT22;4359;49.358;11.256;2023-04-25T10:54:06;13.00;99.90
8643;DHT22;4359;49.358;11.256;2023-04-25T10:59:11;14.80;99.90
8643;DHT22;4359;49.358;11.256;2023-04-25T11:01:39;15.40;99.90
8643;DHT22;4359;49.358;11.256;2023-04-25T11:04:06;15.60;99.90
8643;DHT22;4359;49.358;11.256;2023-04-25T11:09:24;14.10;99.90
8643;DHT22;4359;49.358;11.256;2023-04-25T11:11:54;12.60;99.90
8643;DHT22;4359;49.358;11.256;2023-04-25T11:14:21;12.20;99.90
8643;DHT22;4359;49.358;11.256;2023-04-25T11:16:47;12.00;99.90
8643;DHT22;4359;49.358;11.256;2023-04-25T11:19:13;11.40;99.90
8643;DHT22;4359;49.358;11.256;2023-04-25T11:21:38;11.20;99.90
8643;DHT22;4359;49.358;11.256;2023-04-25T11:24:04;11.10;99.90
8643;DHT22;4359;49.358;11.256;2023-04-25T11:26:30;10.90;99.90
8643;DHT22;4359;49.358;11.256;2023-04-25T11:28:59;11.80;99.90
8643;DHT22;4359;49.358;11.256;2023-04-25T11:31:25;12.80;99.90
8643;DHT22;4359;49.358;11.256;2023-04-25T11:33:53;12.80;99.90
8643;DHT22;4359;49.358;11.256;2023-04-25T11:36:20;12.40;99.90
8643;DHT22;4359;49.358;11.256;2023-04-25T11:38:47;12.30;99.90
8643;DHT22;4359;49.358;11.256;2023-04-25T11:41:13;11.90;99.90
8643;DHT22;4359;49.358;11.256;2023-04-25T11:43:39;11.80;99.90
8643;DHT22;4359;49.358;11.256;2023-04-25T11:46:07;11.80;99.90
8643;DHT22;4359;49.358;11.256;2023-04-25T11:48:40;12.00;99.90
8643;DHT22;4359;49.358;11.256;2023-04-25T11:51:06;12.80;99.90
8643;DHT22;4359;49.358;11.256;2023-04-25T11:53:32;13.10;99.90
8643;DHT22;4359;49.358;11.256;2023-04-25T11:55:58;12.80;99.90
8643;DHT22;4359;49.358;11.256;2023-04-25T11:58:25;12.10;99.90
8643;DHT22;4359;49.358;11.256;2023-04-25T12:00:51;11.60;99.90
8643;DHT22;4359;49.358;11.256;2023-04-25T12:03:18;11.60;99.90
8643;DHT22;4359;49.358;11.256;2023-04-25T12:05:45;11.60;99.90
8643;DHT22;4359;49.358;11.256;2023-04-25T12:08:12;11.70;99.90
8643;DHT22;4359;49.358;11.256;2023-04-25T12:10:42;11.90;99.90
8643;DHT22;4359;49.358;11.256;2023-04-25T12:13:22;12.20;99.90
8643;DHT22;4359;49.358;11.256;2023-04-25T12:15:48;12.10;99.90
8643;DHT22;4359;49.358;11.256;2023-04-25T12:18:14;12.10;99.90
8643;DHT22;4359;49.358;11.256;2023-04-25T12:20:41;11.80;99.90
8643;DHT22;4359;49.358;11.256;2023-04-25T12:23:07;11.50;99.90
8643;DHT22;4359;49.358;11.256;2023-04-25T12:31:06;11.90;99.90
8643;DHT22;4359;49.358;11.256;2023-04-25T12:33:38;12.20;99.90
8643;DHT22;4359;49.358;11.256;2023-04-25T12:36:05;12.50;99.90
8643;DHT22;4359;49.358;11.256;2023-04-25T12:38:40;13.10;99.90
8643;DHT22;4359;49.358;11.256;2023-04-25T12:41:06;13.20;99.90
8643;DHT22;4359;49.358;11.256;2023-04-25T12:43:32;12.70;99.90
8643;DHT22;4359;49.358;11.256;2023-04-25T12:45:58;12.40;99.90
8643;DHT22;4359;49.358;11.256;2023-04-25T12:48:24;11.80;99.90
8643;DHT22;4359;49.358;11.256;2023-04-25T12:50:51;11.50;99.90
8643;DHT22;4359;49.358;11.256;2023-04-25T12:53:20;11.60;99.90
8643;DHT22;4359;49.358;11.256;2023-04-25T12:55:47;11.80;99.90
8643;DHT22;4359;49.358;11.256;2023-04-25T12:58:14;12.00;99.90
8643;DHT22;4359;49.358;11.256;2023-04-25T13:00:39;12.20;99.90
8643;DHT22;4359;49.358;11.256;2023-04-25T13:03:05;12.10;99.90
8643;DHT22;4359;49.358;11.256;2023-04-25T13:05:31;11.90;99.90
8643;DHT22;4359;49.358;11.256;2023-04-25T13:07:57;12.10;99.90
8643;DHT22;4359;49.358;11.256;2023-04-25T13:10:23;12.00;99.90
8643;DHT22;4359;49.358;11.256;2023-04-25T13:12:48;11.80;99.90
8643;DHT22;4359;49.358;11.256;2023-04-25T13:15:14;11.60;99.90
8643;DHT22;4359;49.358;11.256;2023-04-25T13:17:43;11.50;99.90
8643;DHT22;4359;49.358;11.256;2023-04-25T13:20:09;11.40;99.90
8643;DHT22;4359;49.358;11.256;2023-04-25T13:22:39;11.30;99.90
8643;DHT22;4359;49.358;11.256;2023-04-25T13:25:06;11.00;99.90
8643;DHT22;4359;49.358;11.256;2023-04-25T13:27:33;11.20;99.90
8643;DHT22;4359;49.358;11.256;2023-04-25T13:30:01;11.70;99.90
8643;DHT22;4359;49.358;11.256;2023-04-25T13:32:35;12.10;99.90
8643;DHT22;4359;49.358;11.256;2023-04-25T13:35:05;12.30;99.90
8643;DHT22;4359;49.358;11.256;2023-04-25T13:37:31;12.60;99.90
8643;DHT22;4359;49.358;11.256;2023-04-25T13:40:02;12.70;99.90
8643;DHT22;4359;49.358;11.256;2023-04-25T13:42:30;12.40;99.90
8643;DHT22;4359;49.358;11.256;2023-04-25T13:44:56;12.20;99.90
8643;DHT22;4359;49.358;11.256;2023-04-25T13:47:22;11.90;99.90
8643;DHT22;4359;49.358;11.256;2023-04-25T13:49:49;11.70;99.90
8643;DHT22;4359;49.358;11.256;2023-04-25T13:52:15;11.90;99.90
8643;DHT22;4359;49.358;11.256;2023-04-25T13:54:41;11.80;99.90
8643;DHT22;4359;49.358;11.256;2023-04-25T13:57:06;11.80;99.90
8643;DHT22;4359;49.358;11.256;2023-04-25T13:59:33;11.60;99.90
8643;DHT22;4359;49.358;11.256;2023-04-25T14:01:58;11.40;99.90
8643;DHT22;4359;49.358;11.256;2023-04-25T14:04:24;11.30;99.90
8643;DHT22;4359;49.358;11.256;2023-04-25T14:06:51;11.40;99.90
8643;DHT22;4359;49.358;11.256;2023-04-25T14:09:18;11.50;99.90
8643;DHT22;4359;49.358;11.256;2023-04-25T14:11:44;11.30;99.90
8643;DHT22;4359;49.358;11.256;2023-04-25T14:14:10;11.10;99.90
8643;DHT22;4359;49.358;11.256;2023-04-25T14:16:35;10.90;99.90
8643;DHT22;4359;49.358;11.256;2023-04-25T14:19:01;10.70;99.90
8643;DHT22;4359;49.358;11.256;2023-04-25T14:21:27;10.60;99.90
8643;DHT22;4359;49.358;11.256;2023-04-25T14:23:54;10.50;99.90
8643;DHT22;4359;49.358;11.256;2023-04-25T14:26:20;10.40;99.90
8643;DHT22;4359;49.358;11.256;2023-04-25T14:28:45;10.30;99.90
8643;DHT22;4359;49.358;11.256;2023-04-25T14:31:11;10.30;99.90
8643;DHT22;4359;49.358;11.256;2023-04-25T14:33:37;10.20;99.90
8643;DHT22;4359;49.358;11.256;2023-04-25T14:36:07;10.20;99.90
8643;DHT22;4359;49.358;11.256;2023-04-25T14:38:33;10.40;99.90
8643;DHT22;4359;49.358;11.256;2023-04-25T14:40:58;10.60;99.90
8643;DHT22;4359;49.358;11.256;2023-04-25T14:43:24;10.90;99.90
8643;DHT22;4359;49.358;11.256;2023-04-25T14:45:50;11.00;99.90
8643;DHT22;4359;49.358;11.256;2023-04-25T14:48:16;11.10;99.90
8643;DHT22;4359;49.358;11.256;2023-04-25T14:50:43;11.10;99.90
8643;DHT22;4359;49.358;11.256;2023-04-25T14:53:08;11.10;99.90
8643;DHT22;4359;49.358;11.256;2023-04-25T14:55:34;10.80;99.90
8643;DHT22;4359;49.358;11.256;2023-04-25T14:58:00;10.50;99.90
8643;DHT22;4359;49.358;11.256;2023-04-25T15:00:26;10.40;99.90
8643;DHT22;4359;49.358;11.256;2023-04-25T15:02:52;10.40;99.90
8643;DHT22;4359;49.358;11.256;2023-04-25T15:05:17;10.30;99.90
8643;DHT22;4359;49.358;11.256;2023-04-25T15:07:44;10.20;99.90
8643;DHT22;4359;49.358;11.256;2023-04-25T15:10:10;10.10;99.90
8643;DHT22;4359;49.358;11.256;2023-04-25T15:12:44;9.90;99.90
8643;DHT22;4359;49.358;11.256;2023-04-25T15:15:11;9.80;99.90
8643;DHT22;4359;49.358;11.256;2023-04-25T15:17:46;9.80;99.90
8643;DHT22;4359;49.358;11.256;2023-04-25T15:20:13;9.80;99.90
8643;DHT22;4359;49.358;11.256;2023-04-25T15:22:40;9.80;99.90
8643;DHT22;4359;49.358;11.256;2023-04-25T15:25:07;9.80;99.90
8643;DHT22;4359;49.358;11.256;2023-04-25T15:27:33;10.00;99.90
8643;DHT22;4359;49.358;11.256;2023-04-25T15:30:06;10.00;99.90
8643;DHT22;4359;49.358;11.256;2023-04-25T15:32:33;10.10;99.90
8643;DHT22;4359;49.358;11.256;2023-04-25T15:34:58;10.20;99.90
8643;DHT22;4359;49.358;11.256;2023-04-25T15:37:24;10.20;99.90
8643;DHT22;4359;49.358;11.256;2023-04-25T15:40:07;10.20;99.90
8643;DHT22;4359;49.358;11.256;2023-04-25T15:42:38;10.30;99.90
8643;DHT22;4359;49.358;11.256;2023-04-25T15:45:05;10.40;99.90
8643;DHT22;4359;49.358;11.256;2023-04-25T15:47:32;10.40;99.90
8643;DHT22;4359;49.358;11.256;2023-04-25T15:49:58;10.60;99.90
8643;DHT22;4359;49.358;11.256;2023-04-25T15:52:25;10.80;99.90
8643;DHT22;4359;49.358;11.256;2023-04-25T15:54:52;11.00;99.90
8643;DHT22;4359;49.358;11.256;2023-04-25T15:57:18;11.10;99.90
8643;DHT22;4359;49.358;11.256;2023-04-25T15:59:43;10.90;99.90
8643;DHT22;4359;49.358;11.256;2023-04-25T16:02:11;10.80;99.90
8643;DHT22;4359;49.358;11.256;2023-04-25T16:04:36;10.40;99.90
8643;DHT22;4359;49.358;11.256;2023-04-25T16:07:05;10.20;99.90
8643;DHT22;4359;49.358;11.256;2023-04-25T16:09:32;10.20;99.90
8643;DHT22;4359;49.358;11.256;2023-04-25T16:11:59;10.10;99.90
8643;DHT22;4359;49.358;11.256;2023-04-25T16:14:25;10.20;99.90